createdAt,value
2018-08-19T00:04:02.493Z,6.73
2018-08-19T00:09:13.243Z,7.57
2018-08-19T00:14:28.474Z,7.37
2018-08-19T00:19:32.953Z,8.37
2018-08-19T00:24:35.993Z,8.50
2018-08-19T00:29:39.021Z,8.70
2018-08-19T00:34:42.124Z,8.73
2018-08-19T00:39:45.137Z,7.90
2018-08-19T00:44:48.184Z,7.70
2018-08-19T00:49:55.462Z,7.93
2018-08-19T00:54:58.536Z,8.10
2018-08-19T01:00:01.544Z,8.07
2018-08-19T01:05:04.672Z,8.17
2018-08-19T01:10:07.688Z,7.43
2018-08-19T01:15:11.992Z,7.27
2018-08-19T01:20:20.012Z,8.90
2018-08-19T01:25:23.022Z,8.17
2018-08-19T01:30:27.049Z,7.87
2018-08-19T01:35:36.384Z,8.03
2018-08-19T01:40:39.457Z,9.10
2018-08-19T01:45:42.494Z,8.27
2018-08-19T01:50:45.512Z,7.70
2018-08-19T01:55:48.527Z,8.03
2018-08-19T02:00:51.616Z,7.70
2018-08-19T02:05:54.836Z,7.80
2018-08-19T02:10:57.852Z,7.77
2018-08-19T02:16:04.840Z,7.63
2018-08-19T02:21:07.864Z,7.43
2018-08-19T02:26:10.920Z,8.27
2018-08-19T02:31:13.947Z,7.37
2018-08-19T02:36:17.023Z,7.23
2018-08-19T02:41:20.036Z,7.53
2018-08-19T02:46:23.164Z,6.67
2018-08-19T02:51:26.240Z,6.50
2018-08-19T02:56:29.264Z,5.70
2018-08-19T03:01:32.284Z,7.13
2018-08-19T03:06:36.396Z,6.97
2018-08-19T03:11:40.011Z,5.97
2018-08-19T03:16:43.032Z,6.73
2018-08-19T03:21:46.045Z,5.53
2018-08-19T03:26:49.100Z,6.00
2018-08-19T03:31:56.387Z,6.00
2018-08-19T03:36:59.512Z,5.00
2018-08-19T03:42:02.540Z,4.90
2018-08-19T03:47:09.804Z,5.40
2018-08-19T03:52:13.280Z,5.77
2018-08-19T03:57:19.742Z,5.70
2018-08-19T04:02:22.757Z,6.23
2018-08-19T04:07:25.774Z,5.87
2018-08-19T04:12:28.821Z,5.17
2018-08-19T04:17:31.852Z,4.57
2018-08-19T04:22:34.854Z,4.57
2018-08-19T04:27:37.877Z,4.70
2018-08-19T04:32:40.893Z,4.47
2018-08-19T04:37:43.936Z,4.80
2018-08-19T04:42:46.964Z,4.30
2018-08-19T04:47:49.980Z,4.10
2018-08-19T04:52:53.040Z,3.90
2018-08-19T04:57:56.147Z,3.60
2018-08-19T05:02:59.217Z,4.00
2018-08-19T05:08:02.322Z,4.10
2018-08-19T05:13:05.769Z,4.00
2018-08-19T05:18:09.192Z,3.60
2018-08-19T05:23:12.209Z,3.30
2018-08-19T05:28:16.650Z,3.87
2018-08-19T05:33:19.677Z,3.90
2018-08-19T05:38:22.700Z,4.67
2018-08-19T05:43:25.704Z,4.47
2018-08-19T05:48:28.840Z,3.37
2018-08-19T05:53:31.940Z,3.90
2018-08-19T05:58:35.053Z,3.53
2018-08-19T06:03:38.135Z,3.10
2018-08-19T06:08:41.152Z,2.90
2018-08-19T06:13:44.156Z,3.30
2018-08-19T06:18:47.174Z,3.17
2018-08-19T06:23:50.262Z,3.30
2018-08-19T06:28:53.888Z,3.77
2018-08-19T06:33:56.981Z,3.50
2018-08-19T06:38:59.992Z,3.70
2018-08-19T06:44:03.040Z,3.27
2018-08-19T06:49:12.348Z,3.17
2018-08-19T06:54:15.381Z,2.90
2018-08-19T06:59:18.445Z,3.10
2018-08-19T07:04:21.468Z,2.73
2018-08-19T07:09:24.481Z,2.80
2018-08-19T07:14:28.585Z,2.40
2018-08-19T07:19:31.685Z,2.40
2018-08-19T07:24:36.019Z,2.47
2018-08-19T07:29:39.098Z,2.17
2018-08-19T07:34:42.145Z,1.80
2018-08-19T07:39:50.708Z,2.33
2018-08-19T07:44:53.735Z,2.23
2018-08-19T07:49:56.753Z,2.70
2018-08-19T07:54:59.875Z,2.27
2018-08-19T08:00:02.884Z,2.30
2018-08-19T08:05:07.116Z,2.03
2018-08-19T08:10:10.141Z,1.90
2018-08-19T08:15:13.268Z,2.20
2018-08-19T08:20:16.292Z,2.17
2018-08-19T08:25:19.324Z,1.30
2018-08-19T08:30:22.347Z,1.47
2018-08-19T08:35:25.404Z,2.03
2018-08-19T08:40:28.429Z,1.83
2018-08-19T08:45:36.443Z,2.10
2018-08-19T08:50:40.420Z,2.20
2018-08-19T08:55:43.496Z,1.90
2018-08-19T09:00:47.056Z,1.83
2018-08-19T09:05:50.085Z,2.60
2018-08-19T09:10:53.981Z,1.97
2018-08-19T09:15:57.137Z,2.70
2018-08-19T09:21:00.168Z,2.10
2018-08-19T09:26:03.192Z,2.53
2018-08-19T09:31:06.260Z,2.67
2018-08-19T09:36:09.358Z,2.10
2018-08-19T09:41:12.919Z,2.03
2018-08-19T09:46:16.041Z,2.13
2018-08-19T09:51:19.372Z,2.03
2018-08-19T09:56:23.576Z,3.13
2018-08-19T10:01:32.081Z,2.07
2018-08-19T10:06:35.096Z,2.63
2018-08-19T10:11:38.455Z,2.40
2018-08-19T10:16:44.120Z,2.20
2018-08-19T10:21:47.140Z,2.00
2018-08-19T10:26:50.172Z,2.30
2018-08-19T10:31:54.817Z,2.13
2018-08-19T10:36:58.480Z,2.47
2018-08-19T10:42:17.868Z,2.10
2018-08-19T10:47:21.487Z,3.17
2018-08-19T10:52:26.642Z,2.43
2018-08-19T10:57:29.659Z,2.43
2018-08-19T11:02:32.743Z,2.20
2018-08-19T11:07:35.837Z,2.30
2018-08-19T11:12:38.968Z,2.00
2018-08-19T11:17:41.992Z,1.97
2018-08-19T11:22:45.066Z,1.90
2018-08-19T11:27:48.110Z,1.80
2018-08-19T11:32:51.612Z,2.10
2018-08-19T11:37:55.680Z,1.87
2018-08-19T11:42:58.733Z,1.43
2018-08-19T11:48:01.759Z,1.93
2018-08-19T11:53:04.794Z,2.20
2018-08-19T11:58:07.845Z,2.00
2018-08-19T12:03:10.892Z,1.80
2018-08-19T12:08:13.929Z,2.30
2018-08-19T12:13:16.975Z,2.30
2018-08-19T12:18:20.012Z,1.93
2018-08-19T12:23:23.045Z,2.50
2018-08-19T12:28:26.065Z,2.30
2018-08-19T12:33:29.109Z,2.20
2018-08-19T12:38:32.156Z,1.70
2018-08-19T12:43:35.660Z,1.60
2018-08-19T12:48:38.703Z,2.13
2018-08-19T12:53:41.736Z,2.13
2018-08-19T12:58:44.772Z,1.80
2018-08-19T13:03:47.857Z,2.10
2018-08-19T13:08:50.912Z,2.80
2018-08-19T13:13:53.994Z,2.20
2018-08-19T13:18:56.990Z,2.40
2018-08-19T13:24:00.021Z,2.00
2018-08-19T13:29:03.072Z,2.00
2018-08-19T13:34:06.216Z,2.17
2018-08-19T13:39:09.313Z,2.30
2018-08-19T13:44:12.348Z,1.80
2018-08-19T13:49:18.484Z,2.10
2018-08-19T13:54:22.720Z,2.20
2018-08-19T13:59:25.754Z,1.87
2018-08-19T14:04:28.800Z,1.87
2018-08-19T14:09:31.844Z,1.93
2018-08-19T14:14:34.873Z,2.53
2018-08-19T14:19:37.948Z,3.23
2018-08-19T14:24:40.984Z,2.37
2018-08-19T14:29:44.145Z,2.90
2018-08-19T14:34:47.257Z,2.77
2018-08-19T14:39:50.304Z,2.77
2018-08-19T14:44:53.572Z,4.00
2018-08-19T14:49:57.600Z,3.10
2018-08-19T14:55:00.622Z,2.77
2018-08-19T15:00:05.247Z,2.70
2018-08-19T15:05:12.056Z,3.30
2018-08-19T15:10:19.828Z,2.53
2018-08-19T15:15:22.968Z,2.80
2018-08-19T15:20:31.572Z,2.80
2018-08-19T15:25:34.688Z,2.93
2018-08-19T15:30:39.658Z,2.70
2018-08-19T15:35:43.048Z,2.70
2018-08-19T15:40:48.873Z,3.00
2018-08-19T15:45:51.929Z,2.77
2018-08-19T15:50:59.216Z,2.50
2018-08-19T15:56:02.340Z,3.50
2018-08-19T16:01:17.303Z,3.13
2018-08-19T16:06:20.429Z,3.27
2018-08-19T16:11:23.497Z,2.93
2018-08-19T16:16:26.665Z,4.47
2018-08-19T16:21:29.704Z,2.90
2018-08-19T16:26:32.736Z,3.20
2018-08-19T16:31:35.783Z,3.23
2018-08-19T16:36:38.816Z,3.67
2018-08-19T16:41:41.856Z,3.53
2018-08-19T16:46:44.884Z,4.97
2018-08-19T16:51:47.908Z,3.10
2018-08-19T16:56:50.926Z,3.50
2018-08-19T17:01:53.991Z,3.77
2018-08-19T17:06:57.021Z,3.50
2018-08-19T17:12:00.036Z,3.17
2018-08-19T17:17:03.088Z,3.70
2018-08-19T17:22:08.211Z,2.60
2018-08-19T17:27:11.724Z,3.07
2018-08-19T17:32:14.780Z,2.77
2018-08-19T17:37:18.504Z,3.00
2018-08-19T17:42:21.596Z,3.03
2018-08-19T17:47:24.644Z,3.27
2018-08-19T17:52:27.700Z,3.43
2018-08-19T17:57:30.746Z,3.67
2018-08-19T18:02:33.776Z,3.17
2018-08-19T18:07:36.888Z,3.50
2018-08-19T18:12:39.949Z,3.13
2018-08-19T18:17:47.308Z,3.60
2018-08-19T18:22:50.505Z,2.80
2018-08-19T18:27:53.592Z,2.80
2018-08-19T18:32:56.608Z,3.33
2018-08-19T18:38:00.100Z,3.87
2018-08-19T18:43:03.343Z,3.90
2018-08-19T18:48:07.213Z,3.57
2018-08-19T18:53:10.445Z,4.30
2018-08-19T18:58:13.698Z,4.77
2018-08-19T19:03:16.801Z,3.43
2018-08-19T19:08:19.832Z,4.93
2018-08-19T19:13:23.889Z,4.57
2018-08-19T19:18:26.955Z,3.93
2018-08-19T19:23:32.575Z,3.83
2018-08-19T19:28:35.735Z,3.70
2018-08-19T19:33:38.716Z,4.93
2018-08-19T19:38:48.277Z,4.50
2018-08-19T19:43:51.308Z,4.17
2018-08-19T19:48:54.394Z,4.70
2018-08-19T19:53:57.439Z,4.30
2018-08-19T19:59:00.477Z,4.53
2018-08-19T20:04:03.788Z,4.80
2018-08-19T20:09:06.848Z,5.77
2018-08-19T20:14:09.898Z,5.03
2018-08-19T20:19:12.936Z,5.30
2018-08-19T20:24:16.026Z,6.40
2018-08-19T20:29:19.276Z,5.30
2018-08-19T20:34:22.309Z,5.03
2018-08-19T20:39:25.383Z,5.80
2018-08-19T20:44:28.613Z,5.20
2018-08-19T20:49:31.628Z,6.83
2018-08-19T20:54:34.737Z,5.93
2018-08-19T20:59:38.516Z,5.80
2018-08-19T21:04:41.538Z,5.57
2018-08-19T21:09:44.579Z,6.07
2018-08-19T21:14:47.682Z,5.13
2018-08-19T21:19:50.690Z,5.20
2018-08-19T21:24:53.747Z,6.23
2018-08-19T21:29:56.838Z,6.43
2018-08-19T21:34:59.840Z,6.17
2018-08-19T21:40:03.296Z,5.47
2018-08-19T21:45:06.342Z,6.37
2018-08-19T21:50:09.368Z,6.27
2018-08-19T21:55:12.392Z,6.77
2018-08-19T22:00:15.420Z,8.27
2018-08-19T22:05:18.532Z,7.53
2018-08-19T22:10:21.639Z,6.50
2018-08-19T22:15:29.055Z,7.57
2018-08-19T22:20:32.299Z,7.00
2018-08-19T22:25:35.376Z,7.13
2018-08-19T22:30:38.438Z,8.00
2018-08-19T22:35:41.474Z,6.57
2018-08-19T22:40:44.533Z,8.10
2018-08-19T22:45:48.164Z,6.83
2018-08-19T22:50:51.212Z,6.17
2018-08-19T22:55:54.316Z,7.43
2018-08-19T23:00:57.345Z,7.83
2018-08-19T23:06:00.413Z,7.30
2018-08-19T23:11:04.195Z,7.00
2018-08-19T23:16:09.300Z,6.90
2018-08-19T23:21:12.345Z,6.40
2018-08-19T23:26:15.395Z,8.13
2018-08-19T23:31:18.412Z,7.20
2018-08-19T23:36:21.423Z,7.93
2018-08-19T23:41:24.479Z,7.37
2018-08-19T23:46:27.518Z,6.77
2018-08-19T23:51:31.596Z,6.63
2018-08-19T23:56:34.653Z,6.97
